Terminal Aerodrome Forecast
Issued by NWS Jacksonville, FL

Home | Current Version | Previous Version | Text Only | Print | Product List | Glossary On
Versions: 1 2 3 4 5 6 7 8 9 10 11 12 13 14
000
FTUS42 KJAX 200500
TAFSSI
TAF
KSSI 200521Z 2006/2106 02003KT P6SM SCT050 BKN100 OVC150
     FM200800 03005KT P6SM VCSH BKN050 OVC100
     FM201600 03006KT P6SM BKN050 BKN100=

USA.gov is the U.S. government's official web portal to all federal, state and local government web resources and services.